الصفحة الرئيسية
METAR-TAF:

METAR-TAF

مطار :

Dalhart Municipal Airport

دالهارت, تكساس, الولايات المتحدة

دائرة عرض: 36-01-24N, خط طول: 102-32-50W, ارتفاع: 1216 متر

مراقبة الطقس الحالي

تاريخ ووقت الإصدار 24 دقيقة قبل الساعة 12:53UTC
ريح 10 عقدة من الغرب
درجة الحرارة -8°درجة مئوية
الرطوبة 73%
ضغط 1020 hPa
الرؤية: 16.1 كم
سماء صافية

METAR: KDHT 231253Z AUTO 28010KT 10SM CLR M08/M12 A3012 RMK AO2 SLP226 T10781122

زمن: 07:17 (13:17 UTC)

توقعات

تاريخ ووقت الإصدار 1ساعة و 57 دقيقة قبل الساعة 11:20UTC
التوقعات صالحة من23 الساعة 12 UTC إلى 24 الساعة 12 UTC
ريح 6 عقدة من الغرب
الرؤية: 10 كم
سماء صافية
من 23 الساعة 2300 UTC
ريح 5 عقدة من الجنوب الغربي
الرؤية: 10 كم
غيوم قليلة على ارتفاع 20000 قدم
من 24 الساعة 1000 UTC
ريح 11 عقدة من الشمال
الرؤية: 10 كم
غيوم متفرقة على ارتفاع 15000 قدم

TAF: KDHT 231120Z 2312/2412 28006KT P6SM SKC FM232300 23005KT P6SM FEW200 FM241000 35011KT P6SM SCT150

أرصاد الطقس والتوقعات من أكثر من 4000 مطار (تقارير الطقس للمطار METAR والتنبؤ بالطقس بالمطارTAF).

المحطات المتاحة هي النقط الصفراء والحمراء على الخريطة.

حرك المؤشر فوق النقطة لمعرفة اسم المحطة.

ثم انقر لمعرفة أرصاد وتوقعات الطقس.

لتغيير الخارطة: اضغط على الأزرار الخضراء مع رمز الصليب الأسود للتكبير. على الزر الأخضر مع شرطة للتصغير، أو على الأسهم الخضراء للخرائط المجاورة.


METAR-TAF: